createdAt,value
2022-10-18T09:11:46.764Z,97.57
2022-10-18T09:12:46.666Z,97.66
2022-10-18T09:13:46.594Z,96.51
2022-10-18T09:14:46.525Z,95.03
2022-10-18T09:15:46.446Z,95.70
2022-10-18T09:16:46.370Z,95.70
2022-10-18T09:17:46.295Z,98.10
2022-10-18T09:18:46.227Z,98.29
2022-10-18T09:19:46.147Z,98.86
2022-10-18T09:20:46.072Z,99.25
2022-10-18T11:23:32.434Z,99.99
2022-10-18T11:24:32.342Z,99.99
2022-10-18T11:25:32.273Z,99.99
2022-10-18T11:26:32.194Z,99.99
2022-10-18T11:27:32.126Z,99.99
2022-10-18T11:28:32.125Z,99.99
2022-10-18T11:29:31.982Z,99.99
2022-10-18T11:30:31.903Z,99.99
2022-10-18T11:31:31.842Z,99.99
2022-10-18T11:32:32.095Z,99.99
2022-10-18T11:33:56.261Z,99.99
2022-10-18T11:34:31.611Z,99.99
2022-10-18T11:35:31.537Z,99.99
2022-10-18T11:36:33.999Z,99.99
2022-10-18T11:37:39.388Z,99.99
2022-10-18T11:38:31.335Z,99.99
2022-10-18T11:39:31.633Z,99.99
2022-10-18T11:40:31.170Z,99.99
2022-10-18T11:41:31.103Z,99.99
2022-10-18T11:42:31.025Z,99.99
2022-10-18T11:43:57.071Z,99.99
2022-10-18T11:44:32.293Z,99.99
2022-10-18T11:46:30.730Z,99.99
2022-10-18T11:47:30.875Z,99.99
2022-10-18T11:48:30.583Z,99.99
2022-10-18T11:49:30.512Z,99.99
2022-10-18T11:50:30.434Z,99.99
2022-10-18T11:51:35.411Z,99.99
2022-10-18T11:52:30.290Z,99.99
2022-10-18T11:53:30.216Z,99.99
2022-10-18T11:54:30.215Z,99.99
2022-10-18T11:55:32.838Z,99.99
2022-10-18T11:56:29.997Z,99.99
2022-10-18T11:57:30.299Z,99.99
2022-10-18T11:58:29.854Z,99.99
2022-10-18T11:59:29.775Z,99.99
2022-10-18T12:00:29.699Z,99.99
2022-10-18T12:01:29.630Z,99.99
2022-10-18T12:02:29.773Z,99.99
2022-10-18T12:03:29.480Z,99.99
2022-10-18T12:04:29.501Z,99.99
2022-10-18T12:05:29.380Z,99.99
2022-10-18T12:06:29.252Z,99.99
2022-10-18T12:07:32.331Z,99.99
2022-10-18T12:08:29.106Z,99.99
2022-10-18T12:09:29.031Z,99.99
2022-10-18T12:10:44.123Z,99.99
2022-10-18T12:11:28.903Z,99.99
2022-10-18T12:12:28.976Z,99.99
2022-10-18T12:13:28.736Z,99.99
2022-10-18T12:14:28.659Z,99.99
2022-10-18T12:15:28.588Z,99.99
2022-10-18T12:16:49.393Z,99.99
2022-10-18T12:17:42.085Z,99.99
2022-10-18T12:18:28.364Z,99.99
2022-10-18T12:19:28.294Z,99.99
2022-10-18T12:20:28.213Z,99.99
2022-10-18T12:21:28.148Z,99.99
2022-10-18T12:22:28.067Z,99.99
2022-10-18T12:23:27.993Z,99.99
2022-10-18T12:24:27.924Z,99.99
2022-10-18T12:25:27.848Z,99.99
2022-10-18T12:26:27.773Z,99.99
2022-10-18T12:27:27.716Z,99.88
2022-10-18T12:28:27.679Z,99.49
2022-10-18T12:29:27.553Z,99.49
2022-10-18T12:30:27.475Z,99.68
2022-10-18T12:31:27.402Z,99.11
2022-10-18T12:32:27.426Z,99.15
2022-10-18T12:33:28.826Z,98.19
2022-10-18T12:34:27.181Z,97.28
2022-10-18T12:35:27.105Z,96.61
2022-10-18T12:36:27.029Z,96.56
2022-10-18T12:37:26.959Z,95.98
2022-10-18T12:38:26.883Z,96.85
2022-10-18T12:39:37.569Z,97.52
2022-10-18T12:40:26.732Z,98.39
2022-10-18T12:41:26.660Z,97.71
2022-10-18T12:42:26.586Z,97.52
2022-10-18T12:43:26.530Z,98.00
2022-10-18T12:44:26.502Z,97.62
2022-10-18T12:45:26.364Z,96.66
2022-10-18T12:46:26.334Z,96.27
2022-10-18T12:47:26.212Z,96.13
2022-10-18T12:48:26.136Z,97.19
2022-10-18T12:49:26.065Z,98.34
2022-10-18T12:50:25.989Z,97.86
2022-10-18T12:51:25.915Z,96.13
2022-10-18T12:52:25.842Z,97.67
2022-10-18T12:53:25.767Z,99.11
2022-10-18T12:54:25.693Z,98.72
2022-10-18T12:55:25.619Z,98.91
2022-10-18T12:56:25.555Z,98.24
2022-10-18T12:57:25.470Z,97.96
2022-10-18T12:58:25.400Z,97.76
2022-10-18T12:59:25.435Z,97.67
2022-10-18T13:00:25.252Z,98.63
2022-10-18T13:01:25.229Z,99.88
2022-10-18T13:02:25.103Z,99.78
2022-10-18T13:03:25.028Z,99.59
2022-10-18T13:04:24.957Z,99.40
2022-10-18T13:05:41.046Z,98.82
2022-10-18T13:06:24.807Z,99.73
2022-10-18T13:07:24.733Z,99.93
2022-10-18T13:08:24.656Z,99.99
2022-10-18T13:09:24.584Z,99.99
2022-10-18T13:10:24.511Z,99.99
2022-10-18T13:11:24.436Z,99.99
2022-10-18T13:12:24.373Z,99.99
2022-10-18T13:13:38.602Z,99.99
2022-10-18T13:14:24.216Z,99.99
2022-10-18T13:15:27.609Z,99.99
2022-10-18T13:16:24.072Z,99.99
2022-10-18T13:17:24.001Z,99.99
2022-10-18T13:18:23.925Z,99.99
2022-10-18T13:19:23.851Z,99.99
2022-10-18T13:20:26.473Z,99.99
2022-10-18T13:21:23.711Z,99.99
2022-10-18T13:22:23.634Z,99.99
2022-10-18T13:23:23.566Z,99.99
2022-10-18T13:24:27.325Z,99.99
2022-10-18T13:25:23.420Z,99.99
2022-10-18T13:26:23.347Z,99.99
2022-10-18T13:27:35.611Z,99.99
2022-10-18T13:28:23.202Z,99.99
2022-10-18T13:29:23.132Z,99.99
2022-10-18T13:30:23.062Z,99.99
2022-10-18T13:31:23.006Z,99.99
2022-10-18T13:32:22.915Z,99.99
2022-10-18T13:33:22.847Z,99.99
2022-10-18T13:34:22.769Z,99.99
2022-10-18T13:35:22.700Z,99.99
2022-10-18T13:36:23.506Z,99.99
2022-10-18T13:37:22.554Z,99.99
2022-10-18T13:38:22.479Z,99.99
2022-10-18T13:39:22.409Z,99.99
2022-10-18T13:40:22.337Z,99.99
2022-10-18T13:42:22.192Z,99.99
2022-10-18T13:43:22.119Z,99.99
2022-10-18T13:44:22.047Z,99.99
2022-10-18T13:45:21.975Z,99.99
2022-10-18T13:46:21.902Z,99.99
2022-10-18T13:47:21.900Z,99.99
2022-10-18T13:48:21.765Z,99.99
2022-10-18T13:49:21.686Z,99.99
2022-10-18T13:50:21.664Z,99.99
2022-10-18T13:51:21.544Z,99.99
2022-10-18T13:52:21.469Z,99.99
2022-10-18T13:54:23.900Z,99.99
2022-10-18T13:55:23.839Z,99.99
2022-10-18T13:56:23.751Z,99.99
2022-10-18T13:57:23.685Z,99.99
2022-10-18T13:58:23.614Z,99.99
2022-10-18T13:59:23.593Z,99.99
2022-10-18T14:00:24.476Z,99.99
2022-10-18T14:01:23.429Z,99.99
2022-10-18T14:02:43.030Z,99.99
2022-10-18T14:03:51.351Z,99.99
2022-10-18T14:04:23.176Z,99.99
2022-10-18T14:05:25.625Z,99.99
2022-10-18T14:06:23.033Z,99.99
2022-10-18T14:07:22.959Z,99.99
2022-10-18T14:08:22.930Z,99.99
2022-10-18T14:09:40.377Z,99.99
2022-10-18T14:10:33.334Z,99.99
2022-10-18T14:11:22.670Z,99.99
2022-10-18T14:12:22.609Z,99.99
2022-10-18T14:13:22.527Z,99.99
2022-10-18T14:14:22.456Z,99.99
2022-10-18T14:15:22.481Z,99.99
2022-10-18T14:18:39.769Z,99.99
2022-10-18T14:19:39.681Z,99.99
2022-10-18T14:20:49.465Z,99.99
2022-10-18T14:21:39.535Z,99.99
2022-10-18T14:22:39.459Z,99.99
2022-10-18T14:23:39.389Z,99.99
2022-10-18T14:24:39.317Z,99.99
2022-10-18T14:25:39.248Z,99.99
2022-10-18T14:29:00.276Z,99.99
2022-10-18T14:29:44.219Z,99.99
2022-10-18T14:30:44.029Z,99.99
2022-10-18T14:31:44.004Z,99.99
2022-10-18T14:32:43.884Z,99.99
2022-10-18T14:33:43.827Z,99.99
2022-10-18T14:34:43.735Z,99.99
2022-10-18T14:35:43.748Z,99.99
2022-10-18T14:36:43.591Z,99.99
2022-10-18T14:37:43.521Z,99.99
2022-10-18T14:38:43.443Z,99.99
2022-10-18T14:39:43.373Z,99.99
2022-10-18T14:40:43.297Z,99.99
2022-10-18T14:41:43.226Z,99.99
2022-10-18T14:43:33.261Z,99.54
2022-10-18T14:44:30.565Z,99.40
2022-10-18T14:47:40.546Z,99.99
2022-10-18T14:48:40.470Z,99.68
2022-10-18T14:49:40.435Z,98.05
2022-10-18T14:50:42.946Z,97.47
2022-10-18T14:52:47.757Z,96.70
2022-10-18T14:53:47.680Z,95.36
2022-10-18T14:54:47.607Z,95.65
2022-10-18T14:55:47.531Z,95.70
2022-10-18T14:56:47.460Z,94.64
2022-10-18T14:57:47.386Z,92.62
2022-10-18T14:58:47.310Z,91.18
2022-10-18T14:59:47.238Z,91.37
2022-10-18T15:00:48.533Z,93.49
2022-10-18T15:01:47.091Z,93.49
2022-10-18T15:02:47.019Z,92.62
2022-10-18T15:03:46.945Z,92.05
2022-10-18T15:04:46.888Z,92.72
2022-10-18T15:05:46.792Z,92.62
2022-10-18T15:06:46.721Z,93.29
2022-10-18T15:07:46.642Z,92.24
2022-10-18T15:08:46.571Z,93.49
2022-10-18T15:09:46.496Z,94.54
2022-10-18T15:10:46.422Z,95.21
2022-10-18T15:11:46.348Z,92.24
2022-10-18T15:13:08.263Z,90.89
2022-10-18T15:13:46.248Z,90.12
2022-10-18T15:14:46.129Z,88.83
2022-10-18T15:15:46.052Z,89.93
2022-10-18T15:16:45.978Z,89.26
2022-10-18T15:17:45.903Z,87.96
2022-10-18T15:18:45.828Z,88.35
2022-10-18T15:19:45.754Z,88.25
2022-10-18T15:20:45.699Z,88.25
2022-10-18T15:21:45.605Z,88.45
2022-10-18T15:22:45.925Z,86.24
2022-10-18T15:23:45.455Z,85.66
2022-10-18T15:24:45.386Z,85.47
2022-10-18T15:25:45.308Z,84.99
2022-10-18T15:26:45.235Z,84.70
2022-10-18T15:27:45.453Z,84.22
2022-10-18T15:28:45.124Z,83.84
2022-10-18T15:29:45.012Z,83.26
2022-10-18T15:30:44.937Z,83.45
2022-10-18T15:31:44.863Z,85.18
2022-10-18T15:32:44.790Z,86.43
2022-10-18T15:33:44.712Z,85.75
2022-10-18T15:34:44.640Z,84.70
2022-10-18T15:35:44.564Z,84.41
2022-10-18T15:36:44.550Z,82.78
2022-10-18T15:37:44.415Z,81.82
2022-10-18T15:38:47.561Z,82.49
2022-10-18T15:39:44.268Z,82.59
2022-10-18T15:40:44.194Z,81.82
2022-10-18T15:41:44.122Z,80.38
2022-10-18T15:42:44.045Z,80.76
2022-10-18T15:43:43.970Z,80.28
2022-10-18T15:44:43.896Z,80.19
2022-10-18T15:45:43.872Z,79.80
2022-10-18T15:46:43.746Z,80.09
2022-10-18T15:47:43.670Z,79.61
2022-10-18T15:48:43.595Z,79.13
2022-10-18T15:49:43.523Z,79.96
2022-10-18T15:50:43.449Z,79.32
2022-10-18T15:51:43.373Z,78.99
2022-10-18T15:52:43.320Z,79.28
2022-10-18T15:53:43.222Z,79.09
2022-10-18T15:54:43.197Z,79.28
2022-10-18T15:55:43.078Z,78.32
2022-10-18T15:56:43.000Z,77.75
2022-10-18T15:57:42.927Z,77.75
2022-10-18T15:58:42.852Z,75.92
2022-10-18T15:59:42.776Z,75.35
2022-10-18T16:00:42.703Z,74.68
2022-10-18T16:01:42.702Z,73.91
2022-10-18T16:02:42.555Z,72.75
2022-10-18T16:03:42.506Z,71.89
2022-10-18T16:04:42.406Z,71.89
2022-10-18T16:05:42.328Z,71.31
2022-10-18T16:06:42.257Z,70.26
2022-10-18T16:07:42.179Z,69.87
2022-10-18T16:08:42.124Z,69.68
2022-10-18T16:09:42.030Z,69.40
2022-10-18T16:10:41.956Z,68.91
2022-10-18T16:11:41.881Z,69.40
2022-10-18T16:12:41.915Z,68.73
2022-10-18T16:13:41.733Z,68.82
2022-10-18T16:14:41.658Z,68.73
2022-10-18T16:15:41.580Z,68.50
2022-10-18T16:16:41.517Z,67.54
2022-10-18T16:17:41.432Z,67.76
2022-10-18T16:18:41.358Z,67.47
2022-10-18T16:19:41.283Z,66.86
2022-10-18T16:20:41.460Z,67.16
2022-10-18T16:21:41.231Z,67.06
2022-10-18T16:22:41.444Z,67.16
2022-10-18T16:24:43.513Z,66.39
2022-10-18T16:25:43.404Z,66.39
2022-10-18T16:26:43.330Z,65.81
2022-10-18T16:27:43.268Z,65.33
2022-10-18T16:28:43.250Z,64.56
2022-10-18T16:29:43.104Z,64.18
2022-10-18T16:30:43.032Z,63.89
2022-10-18T16:31:42.978Z,63.89
2022-10-18T16:32:42.879Z,63.51
2022-10-18T16:33:42.808Z,63.29
2022-10-18T16:34:42.735Z,63.00
2022-10-18T16:35:42.652Z,63.09
2022-10-18T16:36:42.579Z,63.09
2022-10-18T16:37:42.502Z,63.09
2022-10-18T16:38:42.428Z,62.71
2022-10-18T16:39:42.351Z,62.81
2022-10-18T16:40:42.296Z,62.52
2022-10-18T16:41:42.207Z,62.33
2022-10-18T16:42:42.126Z,62.42
2022-10-18T16:43:42.054Z,62.33
2022-10-18T16:44:41.977Z,62.13
2022-10-18T16:45:41.900Z,62.42
2022-10-18T16:46:42.046Z,62.52
2022-10-18T16:47:41.763Z,62.42
2022-10-18T16:48:41.689Z,62.42
2022-10-18T16:49:41.605Z,62.30
2022-10-18T16:50:41.526Z,62.49
2022-10-18T16:51:41.448Z,62.30
2022-10-18T16:52:41.374Z,61.63
2022-10-18T16:53:41.300Z,61.72
2022-10-18T16:54:41.221Z,61.63
2022-10-18T16:55:41.148Z,60.96
2022-10-18T16:56:41.159Z,60.57
2022-10-18T16:57:40.995Z,60.57
2022-10-18T16:58:40.922Z,60.38
2022-10-18T16:59:40.844Z,60.38
2022-10-18T17:00:40.783Z,60.28
2022-10-18T17:01:40.780Z,60.47
2022-10-18T17:02:40.672Z,60.28
2022-10-18T17:03:40.790Z,60.57
2022-10-18T17:04:40.469Z,60.38
2022-10-18T17:05:40.390Z,60.28
2022-10-18T17:06:40.316Z,60.09
2022-10-18T17:07:40.241Z,59.77
2022-10-18T17:08:40.315Z,60.28
2022-10-18T17:09:40.087Z,59.30
2022-10-18T17:10:40.022Z,59.30
2022-10-18T17:11:39.947Z,59.30
2022-10-18T17:12:39.883Z,59.30
2022-10-18T17:13:39.783Z,59.30
2022-10-18T17:14:39.709Z,59.30
2022-10-18T17:15:39.633Z,58.44
2022-10-18T17:16:39.557Z,58.62
2022-10-18T17:17:39.479Z,58.44
2022-10-18T17:18:39.414Z,58.15
2022-10-18T17:19:39.327Z,58.05
2022-10-18T17:20:39.258Z,58.15
2022-10-18T17:21:39.187Z,57.95
2022-10-18T17:22:39.110Z,58.15
2022-10-18T17:23:39.025Z,57.38
2022-10-18T17:24:38.954Z,57.28
2022-10-18T17:25:46.434Z,57.38
2022-10-18T17:26:38.798Z,56.99
2022-10-18T17:27:38.723Z,56.99
2022-10-18T17:28:38.771Z,57.09
2022-10-18T17:29:38.567Z,56.61
2022-10-18T17:30:38.495Z,56.81
2022-10-18T17:31:38.430Z,56.81
2022-10-18T17:32:38.343Z,56.99
2022-10-18T17:33:38.266Z,56.99
2022-10-18T17:34:38.266Z,56.81
2022-10-18T17:35:38.164Z,56.81
2022-10-18T17:36:38.039Z,56.42
2022-10-18T17:37:41.506Z,56.23
2022-10-18T17:38:37.886Z,56.42
2022-10-18T17:39:37.810Z,56.71
2022-10-18T17:40:37.736Z,56.42
2022-10-18T17:41:37.664Z,56.42
2022-10-18T17:42:37.581Z,56.42
2022-10-18T17:43:37.565Z,56.71
2022-10-18T17:44:37.449Z,56.42
2022-10-18T17:45:37.356Z,55.85
2022-10-18T17:46:37.280Z,56.23
2022-10-18T17:47:37.202Z,56.13
2022-10-18T17:48:37.126Z,56.04
2022-10-18T17:49:37.253Z,55.63
2022-10-18T17:50:36.975Z,55.73
2022-10-18T17:51:36.898Z,55.73
2022-10-18T17:52:36.864Z,55.63
2022-10-18T17:53:36.744Z,55.73
2022-10-18T17:54:36.671Z,55.82
2022-10-18T17:55:36.595Z,56.01
2022-10-18T17:56:36.516Z,55.91
2022-10-18T17:57:36.440Z,55.44
2022-10-18T17:58:36.412Z,55.73
2022-10-18T17:59:36.286Z,55.53
2022-10-18T18:00:36.236Z,55.53
2022-10-18T18:01:36.223Z,55.63
2022-10-18T18:02:38.365Z,55.82
2022-10-18T18:03:36.131Z,55.88
2022-10-18T18:04:35.906Z,55.63
2022-10-18T18:05:35.830Z,56.01
2022-10-18T18:06:35.756Z,55.53
2022-10-18T18:07:35.677Z,55.31
2022-10-18T18:08:35.601Z,55.51
2022-10-18T18:09:35.523Z,55.51
2022-10-18T18:10:35.446Z,55.63
2022-10-18T18:11:35.369Z,55.22
2022-10-18T18:12:35.509Z,54.93
2022-10-18T18:13:35.216Z,55.60
2022-10-18T18:14:35.145Z,55.60
2022-10-18T18:15:35.063Z,55.88
2022-10-18T18:16:35.025Z,55.79
2022-10-18T18:17:56.079Z,56.37
2022-10-18T18:18:34.856Z,56.46
2022-10-18T18:19:34.834Z,56.08
2022-10-18T18:20:34.759Z,56.94
2022-10-18T18:21:34.621Z,56.94
2022-10-18T18:22:36.859Z,56.84
2022-10-18T18:23:34.474Z,56.72
2022-10-18T18:24:34.380Z,56.72
2022-10-18T18:25:34.307Z,56.53
2022-10-18T18:26:34.222Z,56.82
2022-10-18T18:27:34.307Z,56.91
2022-10-18T18:28:34.114Z,56.72
2022-10-18T18:29:33.990Z,56.15
2022-10-18T18:30:33.913Z,55.96
2022-10-18T18:31:38.644Z,55.96
2022-10-18T18:32:34.079Z,55.38
2022-10-18T18:33:33.684Z,55.57
2022-10-18T18:34:33.606Z,54.80
2022-10-18T18:35:33.629Z,55.57
2022-10-18T18:36:33.452Z,55.38
2022-10-18T18:37:33.374Z,55.47
2022-10-18T18:38:33.299Z,55.96
2022-10-18T18:39:33.232Z,55.76
2022-10-18T18:40:33.146Z,56.15
2022-10-18T18:41:33.065Z,55.86
2022-10-18T18:42:33.336Z,55.76
2022-10-18T18:43:32.919Z,55.96
2022-10-18T18:44:32.836Z,56.53
2022-10-18T18:45:32.757Z,56.24
2022-10-18T18:46:32.685Z,56.24
2022-10-18T18:47:32.607Z,56.15
2022-10-18T18:48:32.553Z,56.34
2022-10-18T18:49:32.451Z,56.05
2022-10-18T18:50:32.376Z,56.43
2022-10-18T18:51:32.297Z,56.69
2022-10-18T18:52:32.606Z,56.98
2022-10-18T18:53:32.141Z,56.98
2022-10-18T18:54:32.066Z,57.65
2022-10-18T18:55:31.989Z,57.17
2022-10-18T18:56:31.911Z,57.65
2022-10-18T18:57:32.102Z,56.88
2022-10-18T18:58:31.760Z,56.69
2022-10-18T18:59:31.682Z,56.21
2022-10-18T19:00:31.608Z,55.45
2022-10-18T19:03:09.295Z,55.93
2022-10-18T20:01:35.942Z,54.94
2022-10-18T20:02:36.009Z,54.94
2022-10-18T20:03:35.692Z,54.85
2022-10-18T20:04:35.608Z,55.23
2022-10-18T20:05:35.532Z,55.04
2022-10-18T21:42:46.516Z,55.18
2022-10-18T21:43:46.412Z,55.18
2022-10-18T21:44:46.333Z,54.99
2022-10-18T21:45:46.256Z,55.46
2022-10-18T21:46:46.179Z,55.34
2022-10-18T21:47:46.097Z,55.18
2022-10-18T21:48:46.022Z,55.36
2022-10-18T21:49:45.941Z,55.75
2022-10-18T21:50:45.862Z,55.91
2022-10-18T21:51:45.781Z,55.27
2022-10-18T21:52:45.706Z,55.46
2022-10-18T21:53:45.627Z,55.18
2022-10-18T21:54:45.547Z,55.08
2022-10-18T21:55:45.476Z,54.99
2022-10-18T21:56:45.391Z,54.99
2022-10-18T21:57:45.312Z,54.89
2022-10-18T21:58:45.252Z,54.89
2022-10-18T21:59:45.169Z,54.89
2022-10-18T22:00:45.097Z,54.79
2022-10-18T22:01:44.997Z,55.18
2022-10-18T22:02:44.952Z,54.79
2022-10-18T22:03:44.839Z,54.79
2022-10-18T22:04:44.764Z,54.99
2022-10-18T22:05:47.706Z,55.05
2022-10-18T22:06:44.607Z,54.48
2022-10-18T22:07:44.526Z,54.86
2022-10-18T22:08:44.447Z,54.86
2022-10-18T22:09:47.192Z,54.86
2022-10-18T22:10:44.291Z,54.96
2022-10-18T22:11:44.209Z,54.99
2022-10-18T22:12:44.134Z,54.86
2022-10-18T22:48:54.637Z,51.76
2022-10-18T22:49:54.541Z,51.57
2022-10-18T22:50:54.465Z,51.76
2022-10-18T22:51:54.384Z,51.48
2022-10-18T22:52:54.736Z,51.48
2022-10-18T22:53:54.236Z,51.48
2022-10-18T22:55:36.633Z,51.38
2022-10-18T22:56:39.983Z,51.29
2022-10-18T22:57:36.476Z,51.57
2022-10-18T22:58:36.397Z,51.48
2022-10-18T22:59:36.319Z,51.19
2022-10-18T23:01:36.164Z,51.48
2022-10-18T23:02:36.286Z,51.00
2022-10-18T23:03:36.008Z,51.31
2022-10-18T23:04:35.996Z,51.21
2022-10-18T23:05:35.851Z,51.31
2022-10-18T23:06:35.770Z,51.21
